createdAt,value
2019-04-01T00:00:15.594Z,935.51
2019-04-01T00:01:15.581Z,935.50
2019-04-01T00:02:15.574Z,935.51
2019-04-01T00:03:15.560Z,935.49
2019-04-01T00:04:15.568Z,935.51
2019-04-01T00:05:15.547Z,935.50
2019-04-01T00:06:15.534Z,935.52
2019-04-01T00:07:15.530Z,935.49
2019-04-01T00:08:15.539Z,935.52
2019-04-01T00:09:15.516Z,935.56
2019-04-01T00:10:15.501Z,935.56
2019-04-01T00:11:15.509Z,935.53
2019-04-01T00:12:15.482Z,935.51
2019-04-01T00:13:15.490Z,935.55
2019-04-01T00:14:15.497Z,935.52
2019-04-01T00:15:15.511Z,935.47
2019-04-01T00:16:15.461Z,935.45
2019-04-01T00:17:15.470Z,935.47
2019-04-01T00:18:15.440Z,935.49
2019-04-01T00:19:15.430Z,935.51
2019-04-01T00:20:15.436Z,935.57
2019-04-01T00:21:15.428Z,935.60
2019-04-01T00:22:15.415Z,935.60
2019-04-01T00:23:15.418Z,935.61
2019-04-01T00:24:15.398Z,935.65
2019-04-01T00:25:15.406Z,935.61
2019-04-01T00:26:15.377Z,935.61
2019-04-01T00:27:15.390Z,935.63
2019-04-01T00:28:15.380Z,935.65
2019-04-01T00:29:15.402Z,935.62
2019-04-01T00:30:15.394Z,935.59
2019-04-01T00:31:15.338Z,935.62
2019-04-01T00:32:15.343Z,935.60
2019-04-01T00:33:15.316Z,935.65
2019-04-01T00:34:15.321Z,935.67
2019-04-01T00:35:15.324Z,935.73
2019-04-01T00:36:15.304Z,935.71
2019-04-01T00:37:15.313Z,935.80
2019-04-01T00:38:15.303Z,935.78
2019-04-01T00:39:15.285Z,935.78
2019-04-01T00:40:15.275Z,935.77
2019-04-01T00:41:15.272Z,935.74
2019-04-01T00:42:15.269Z,935.76
2019-04-01T00:43:15.240Z,935.79
2019-04-01T00:44:15.243Z,935.81
2019-04-01T00:45:15.249Z,935.84
2019-04-01T00:46:15.227Z,935.88
2019-04-01T00:47:15.229Z,935.92
2019-04-01T00:48:15.234Z,935.95
2019-04-01T00:49:15.195Z,935.92
2019-04-01T00:50:15.210Z,935.95
2019-04-01T00:51:15.202Z,935.93
2019-04-01T00:52:15.176Z,935.91
2019-04-01T00:53:17.845Z,935.90
2019-04-01T00:54:15.179Z,935.89
2019-04-01T00:55:15.158Z,935.87
2019-04-01T00:56:15.152Z,935.89
2019-04-01T00:57:15.133Z,935.90
2019-04-01T00:58:15.129Z,935.89
2019-04-01T00:59:15.174Z,935.86
2019-04-01T01:00:15.127Z,935.90
2019-04-01T01:01:15.120Z,935.90
2019-04-01T01:02:15.107Z,935.89
2019-04-01T01:03:15.142Z,935.87
2019-04-01T01:04:16.312Z,935.88
2019-04-01T01:05:15.086Z,935.88
2019-04-01T01:06:15.063Z,935.93
2019-04-01T01:07:15.068Z,935.94
2019-04-01T01:08:15.058Z,935.90
2019-04-01T01:09:15.053Z,935.92
2019-04-01T01:10:15.023Z,935.93
2019-04-01T01:11:15.043Z,935.96
2019-04-01T01:12:15.010Z,935.95
2019-04-01T01:13:15.011Z,935.97
2019-04-01T01:14:14.997Z,936.00
2019-04-01T01:15:15.032Z,936.03
2019-04-01T01:16:14.977Z,935.97
2019-04-01T01:17:14.980Z,935.96
2019-04-01T01:18:14.981Z,935.95
2019-04-01T01:19:14.971Z,935.94
2019-04-01T01:20:14.966Z,935.91
2019-04-01T01:21:15.154Z,935.90
2019-04-01T01:22:14.946Z,935.84
2019-04-01T01:23:14.927Z,935.83
2019-04-01T01:24:14.945Z,935.83
2019-04-01T01:25:14.905Z,935.84
2019-04-01T01:26:14.906Z,935.82
2019-04-01T01:27:14.905Z,935.82
2019-04-01T01:28:14.891Z,935.83
2019-04-01T01:29:14.881Z,935.79
2019-04-01T01:30:14.879Z,935.82
2019-04-01T01:31:14.872Z,935.83
2019-04-01T01:32:14.871Z,935.79
2019-04-01T01:33:14.849Z,935.80
2019-04-01T01:34:14.869Z,935.81
2019-04-01T01:35:14.846Z,935.81
2019-04-01T01:36:14.820Z,935.75
2019-04-01T01:37:14.823Z,935.79
2019-04-01T01:38:14.819Z,935.80
2019-04-01T01:39:14.805Z,935.77
2019-04-01T01:40:14.809Z,935.80
2019-04-01T01:41:14.785Z,935.76
2019-04-01T01:42:14.771Z,935.78
2019-04-01T01:43:14.790Z,935.77
2019-04-01T01:44:14.784Z,935.73
2019-04-01T01:45:14.768Z,935.74
2019-04-01T01:46:14.744Z,935.74
2019-04-01T01:47:14.759Z,935.72
2019-04-01T01:48:14.744Z,935.67
2019-04-01T01:49:14.742Z,935.68
2019-04-01T01:50:14.735Z,935.64
2019-04-01T01:51:14.727Z,935.61
2019-04-01T01:52:14.694Z,935.58
2019-04-01T01:53:14.712Z,935.56
2019-04-01T01:54:14.699Z,935.52
2019-04-01T01:55:14.681Z,935.51
2019-04-01T01:56:14.689Z,935.47
2019-04-01T01:57:14.672Z,935.42
2019-04-01T01:58:14.644Z,935.45
2019-04-01T01:59:14.671Z,935.41
2019-04-01T02:00:14.641Z,935.40
2019-04-01T02:01:14.627Z,935.34
2019-04-01T02:02:14.641Z,935.36
2019-04-01T02:03:14.619Z,935.32
2019-04-01T02:04:14.603Z,935.34
2019-04-01T02:05:14.598Z,935.30
2019-04-01T02:06:14.582Z,935.32
2019-04-01T02:07:14.581Z,935.29
2019-04-01T02:08:14.583Z,935.28
2019-04-01T02:09:14.577Z,935.27
2019-04-01T02:10:14.565Z,935.25
2019-04-01T02:11:14.595Z,935.23
2019-04-01T02:12:14.547Z,935.25
2019-04-01T02:13:14.524Z,935.24
2019-04-01T02:14:14.526Z,935.24
2019-04-01T02:15:14.530Z,935.28
2019-04-01T02:16:14.507Z,935.31
2019-04-01T02:17:14.520Z,935.36
2019-04-01T02:18:14.495Z,935.41
2019-04-01T02:19:14.470Z,935.39
2019-04-01T02:20:14.485Z,935.39
2019-04-01T02:21:14.480Z,935.38
2019-04-01T02:22:14.467Z,935.38
2019-04-01T02:23:14.474Z,935.39
2019-04-01T02:24:14.464Z,935.31
2019-04-01T02:25:14.441Z,935.34
2019-04-01T02:26:14.440Z,935.31
2019-04-01T02:27:14.426Z,935.31
2019-04-01T02:28:14.423Z,935.29
2019-04-01T02:29:14.418Z,935.31
2019-04-01T02:30:14.421Z,935.31
2019-04-01T02:31:14.401Z,935.34
2019-04-01T02:32:14.379Z,935.34
2019-04-01T02:33:14.380Z,935.33
2019-04-01T02:34:14.380Z,935.34
2019-04-01T02:35:14.365Z,935.36
2019-04-01T02:36:14.347Z,935.34
2019-04-01T02:37:14.341Z,935.37
2019-04-01T02:38:14.374Z,935.39
2019-04-01T02:39:14.338Z,935.39
2019-04-01T02:40:14.325Z,935.40
2019-04-01T02:41:14.365Z,935.39
2019-04-01T02:42:14.312Z,935.38
2019-04-01T02:43:14.299Z,935.39
2019-04-01T02:44:14.333Z,935.38
2019-04-01T02:45:14.295Z,935.35
2019-04-01T02:46:14.289Z,935.35
2019-04-01T02:47:14.257Z,935.36
2019-04-01T02:48:14.275Z,935.35
2019-04-01T02:49:14.296Z,935.36
2019-04-01T02:50:14.252Z,935.31
2019-04-01T02:51:14.246Z,935.30
2019-04-01T02:52:14.240Z,935.30
2019-04-01T02:53:14.211Z,935.34
2019-04-01T02:54:14.211Z,935.32
2019-04-01T02:55:14.200Z,935.36
2019-04-01T02:56:14.193Z,935.38
2019-04-01T02:57:14.194Z,935.39
2019-04-01T02:58:14.193Z,935.37
2019-04-01T02:59:14.190Z,935.38
2019-04-01T03:00:14.204Z,935.37
2019-04-01T03:01:14.208Z,935.29
2019-04-01T03:02:14.185Z,935.27
2019-04-01T03:03:14.146Z,935.22
2019-04-01T03:04:14.128Z,935.16
2019-04-01T03:05:14.114Z,935.13
2019-04-01T03:06:14.116Z,935.15
2019-04-01T03:07:14.127Z,935.12
2019-04-01T03:08:14.105Z,935.12
2019-04-01T03:09:14.083Z,935.14
2019-04-01T03:10:14.086Z,935.17
2019-04-01T03:11:14.066Z,935.15
2019-04-01T03:12:14.084Z,935.16
2019-04-01T03:13:14.079Z,935.12
2019-04-01T03:14:14.052Z,935.07
2019-04-01T03:15:14.063Z,935.07
2019-04-01T03:16:14.075Z,935.04
2019-04-01T03:17:14.029Z,934.99
2019-04-01T03:18:14.035Z,934.97
2019-04-01T03:19:14.013Z,934.96
2019-04-01T03:20:13.994Z,934.94
2019-04-01T03:21:14.042Z,934.94
2019-04-01T03:22:13.984Z,934.91
2019-04-01T03:23:13.968Z,934.89
2019-04-01T03:24:13.990Z,934.93
2019-04-01T03:25:13.957Z,934.89
2019-04-01T03:26:14.014Z,934.89
2019-04-01T03:27:17.061Z,934.89
2019-04-01T03:28:13.952Z,934.90
2019-04-01T03:29:13.922Z,934.91
2019-04-01T03:30:13.940Z,934.93
2019-04-01T03:31:13.909Z,934.91
2019-04-01T03:32:13.919Z,934.92
2019-04-01T03:33:14.087Z,934.88
2019-04-01T03:34:13.897Z,934.85
2019-04-01T03:35:13.900Z,934.85
2019-04-01T03:36:13.882Z,934.81
2019-04-01T03:37:13.907Z,934.81
2019-04-01T03:38:13.850Z,934.79
2019-04-01T03:39:13.853Z,934.79
2019-04-01T03:40:13.840Z,934.79
2019-04-01T03:41:13.832Z,934.80
2019-04-01T03:42:13.837Z,934.78
2019-04-01T03:43:13.827Z,934.77
2019-04-01T03:44:13.807Z,934.74
2019-04-01T03:45:13.821Z,934.74
2019-04-01T03:46:13.785Z,934.74
2019-04-01T03:47:13.825Z,934.68
2019-04-01T03:48:13.768Z,934.69
2019-04-01T03:49:13.775Z,934.67
2019-04-01T03:50:13.760Z,934.69
2019-04-01T03:51:13.752Z,934.67
2019-04-01T03:52:13.758Z,934.66
2019-04-01T03:53:13.719Z,934.64
2019-04-01T03:54:13.741Z,934.64
2019-04-01T03:55:13.701Z,934.68
2019-04-01T03:56:13.712Z,934.67
2019-04-01T03:57:13.713Z,934.69
2019-04-01T03:58:13.684Z,934.68
2019-04-01T03:59:13.696Z,934.71
2019-04-01T04:00:13.685Z,934.69
2019-04-01T04:01:13.677Z,934.70
2019-04-01T04:02:13.668Z,934.73
2019-04-01T04:03:13.658Z,934.73
2019-04-01T04:04:13.649Z,934.72
2019-04-01T04:05:13.646Z,934.74
2019-04-01T04:06:13.630Z,934.77
2019-04-01T04:07:13.603Z,934.80
2019-04-01T04:08:13.626Z,934.78
2019-04-01T04:09:13.621Z,934.84
2019-04-01T04:10:13.600Z,934.82
2019-04-01T04:11:13.590Z,934.88
2019-04-01T04:12:13.578Z,934.87
2019-04-01T04:13:13.635Z,934.87
2019-04-01T04:14:13.606Z,934.89
2019-04-01T04:15:13.614Z,934.88
2019-04-01T04:16:13.550Z,934.88
2019-04-01T04:17:13.535Z,934.87
2019-04-01T04:18:13.530Z,934.84
2019-04-01T04:19:13.519Z,934.89
2019-04-01T04:20:13.500Z,934.83
2019-04-01T04:21:13.495Z,934.84
2019-04-01T04:22:13.505Z,934.81
2019-04-01T04:23:13.520Z,934.77
2019-04-01T04:24:13.490Z,934.75
2019-04-01T04:25:13.479Z,934.73
2019-04-01T04:26:13.465Z,934.72
2019-04-01T04:27:13.460Z,934.68
2019-04-01T04:28:13.430Z,934.69
2019-04-01T04:29:13.450Z,934.68
2019-04-01T04:30:13.441Z,934.70
2019-04-01T04:31:13.427Z,934.66
2019-04-01T04:32:13.403Z,934.66
2019-04-01T04:33:13.396Z,934.64
2019-04-01T04:34:13.414Z,934.65
2019-04-01T04:35:13.406Z,934.63
2019-04-01T04:36:13.372Z,934.64
2019-04-01T04:37:13.361Z,934.59
2019-04-01T04:38:13.386Z,934.63
2019-04-01T04:39:13.361Z,934.67
2019-04-01T04:40:13.358Z,934.66
2019-04-01T04:41:13.356Z,934.62
2019-04-01T04:42:13.327Z,934.62
2019-04-01T04:43:13.333Z,934.61
2019-04-01T04:44:13.324Z,934.64
2019-04-01T04:45:13.296Z,934.62
2019-04-01T04:46:13.309Z,934.55
2019-04-01T04:47:13.287Z,934.55
2019-04-01T04:48:13.276Z,934.46
2019-04-01T04:49:13.275Z,934.47
2019-04-01T04:50:13.315Z,934.41
2019-04-01T04:51:13.251Z,934.41
2019-04-01T04:52:13.252Z,934.42
2019-04-01T04:53:13.284Z,934.43
2019-04-01T04:54:13.240Z,934.43
2019-04-01T04:55:13.214Z,934.43
2019-04-01T04:56:13.223Z,934.43
2019-04-01T04:57:13.258Z,934.43
2019-04-01T04:58:13.207Z,934.41
2019-04-01T04:59:13.192Z,934.41
2019-04-01T05:00:13.176Z,934.39
2019-04-01T05:01:13.227Z,934.40
2019-04-01T05:02:13.172Z,934.39
2019-04-01T05:03:13.204Z,934.37
2019-04-01T05:04:13.152Z,934.35
2019-04-01T05:05:13.140Z,934.33
2019-04-01T05:06:13.146Z,934.31
2019-04-01T05:07:13.124Z,934.31
2019-04-01T05:08:13.115Z,934.30
2019-04-01T05:09:13.120Z,934.24
2019-04-01T05:10:13.125Z,934.21
2019-04-01T05:11:13.106Z,934.18
2019-04-01T05:12:13.073Z,934.18
2019-04-01T05:13:13.087Z,934.21
2019-04-01T05:14:13.084Z,934.16
2019-04-01T05:15:13.062Z,934.17
2019-04-01T05:16:13.076Z,934.16
2019-04-01T05:17:13.061Z,934.11
2019-04-01T05:18:13.051Z,934.10
2019-04-01T05:19:13.015Z,934.10
2019-04-01T05:20:16.280Z,934.11
2019-04-01T05:21:12.997Z,934.11
2019-04-01T05:22:13.018Z,934.14
2019-04-01T05:23:12.998Z,934.15
2019-04-01T05:24:12.973Z,934.14
2019-04-01T05:25:12.978Z,934.17
2019-04-01T05:26:12.957Z,934.18
2019-04-01T05:27:12.966Z,934.18
2019-04-01T05:28:12.966Z,934.20
2019-04-01T05:29:12.953Z,934.19
2019-04-01T05:30:12.929Z,934.19
2019-04-01T05:31:14.557Z,934.20
2019-04-01T05:32:12.934Z,934.17
2019-04-01T05:33:12.918Z,934.15
2019-04-01T05:34:12.910Z,934.16
2019-04-01T05:35:12.908Z,934.11
2019-04-01T05:36:12.906Z,934.11
2019-04-01T05:37:12.900Z,934.13
2019-04-01T05:38:12.879Z,934.15
2019-04-01T05:39:12.878Z,934.13
2019-04-01T05:40:12.835Z,934.14
2019-04-01T05:41:12.850Z,934.14
2019-04-01T05:42:12.837Z,934.13
2019-04-01T05:43:12.823Z,934.13
2019-04-01T05:44:12.812Z,934.10
2019-04-01T05:45:12.855Z,934.11
2019-04-01T05:46:12.804Z,934.07
2019-04-01T05:47:12.789Z,934.06
2019-04-01T05:48:12.803Z,934.04
2019-04-01T05:49:12.934Z,934.06
2019-04-01T05:50:12.758Z,934.02
2019-04-01T05:51:12.828Z,934.03
2019-04-01T05:52:12.774Z,934.02
2019-04-01T05:53:12.732Z,934.05
2019-04-01T05:54:12.778Z,934.08
2019-04-01T05:55:12.744Z,934.05
2019-04-01T05:56:12.715Z,934.07
2019-04-01T05:57:12.712Z,934.07
2019-04-01T05:58:12.696Z,934.05
2019-04-01T05:59:12.738Z,934.07
2019-04-01T06:00:12.708Z,934.09
2019-04-01T06:01:12.687Z,934.07
2019-04-01T06:02:12.712Z,934.02
2019-04-01T06:03:12.660Z,933.97
2019-04-01T06:04:12.666Z,933.93
2019-04-01T06:05:12.632Z,933.89
2019-04-01T06:06:12.641Z,933.88
2019-04-01T06:07:12.615Z,933.84
2019-04-01T06:08:12.618Z,933.90
2019-04-01T06:09:12.659Z,933.92
2019-04-01T06:10:12.652Z,933.96
2019-04-01T06:11:12.598Z,934.00
2019-04-01T06:12:12.590Z,933.97
2019-04-01T06:13:12.570Z,934.00
2019-04-01T06:14:12.569Z,933.97
2019-04-01T06:15:12.556Z,933.97
2019-04-01T06:16:12.551Z,934.00
2019-04-01T06:17:12.542Z,933.98
2019-04-01T06:18:12.533Z,934.00
2019-04-01T06:19:12.514Z,933.99
2019-04-01T06:20:12.520Z,934.03
2019-04-01T06:21:12.498Z,934.00
2019-04-01T06:22:12.508Z,934.01
2019-04-01T06:23:12.487Z,934.01
2019-04-01T06:24:12.475Z,934.04
2019-04-01T06:25:12.486Z,934.03
2019-04-01T06:26:12.611Z,934.01
2019-04-01T06:27:12.822Z,934.00
2019-04-01T06:28:12.458Z,933.99
2019-04-01T06:29:12.450Z,934.00
2019-04-01T06:30:12.441Z,933.95
2019-04-01T06:31:12.421Z,933.96
2019-04-01T06:32:12.407Z,933.90
2019-04-01T06:33:12.445Z,933.86
2019-04-01T06:34:12.386Z,933.84
2019-04-01T06:35:12.472Z,933.80
2019-04-01T06:36:12.370Z,933.80
2019-04-01T06:37:12.368Z,933.76
2019-04-01T06:38:12.379Z,933.74
2019-04-01T06:39:12.355Z,933.73
2019-04-01T06:40:12.348Z,933.72
2019-04-01T06:41:12.417Z,933.74
2019-04-01T06:42:12.333Z,933.72
2019-04-01T06:43:12.325Z,933.72
2019-04-01T06:44:12.312Z,933.76
2019-04-01T06:45:12.314Z,933.75
2019-04-01T06:46:12.305Z,933.77
2019-04-01T06:47:12.305Z,933.80
2019-04-01T06:48:12.290Z,933.80
2019-04-01T06:49:12.313Z,933.84
2019-04-01T06:50:12.279Z,933.82
2019-04-01T06:51:12.259Z,933.80
2019-04-01T06:52:12.258Z,933.83
2019-04-01T06:53:12.237Z,933.81
2019-04-01T06:54:12.250Z,933.81
2019-04-01T06:55:12.241Z,933.79
2019-04-01T06:56:12.222Z,933.79
2019-04-01T06:57:12.212Z,933.73
2019-04-01T06:58:12.249Z,933.71
2019-04-01T06:59:12.189Z,933.78
2019-04-01T07:00:12.177Z,933.74
2019-04-01T07:01:12.173Z,933.68
2019-04-01T07:02:12.154Z,933.65
2019-04-01T07:03:12.146Z,933.61
2019-04-01T07:04:12.139Z,933.60
2019-04-01T07:05:12.804Z,933.57
2019-04-01T07:06:12.128Z,933.57
2019-04-01T07:07:18.821Z,933.60
2019-04-01T07:08:12.114Z,933.61
2019-04-01T07:09:12.100Z,933.62
2019-04-01T07:10:12.091Z,933.68
2019-04-01T07:11:12.087Z,933.66
2019-04-01T07:12:12.083Z,933.71
2019-04-01T07:13:12.074Z,933.75
2019-04-01T07:14:12.078Z,933.80
2019-04-01T07:15:12.047Z,933.78
2019-04-01T07:16:15.729Z,933.77
2019-04-01T07:17:12.049Z,933.75
2019-04-01T07:18:12.071Z,933.72
2019-04-01T07:19:12.008Z,933.69
2019-04-01T07:20:12.010Z,933.68
2019-04-01T07:21:12.006Z,933.70
2019-04-01T07:22:11.974Z,933.69
2019-04-01T07:23:11.988Z,933.70
2019-04-01T07:24:11.973Z,933.75
2019-04-01T07:25:11.953Z,933.76
2019-04-01T07:26:11.941Z,933.77
2019-04-01T07:27:11.964Z,933.76
2019-04-01T07:28:11.949Z,933.79
2019-04-01T07:29:11.942Z,933.79
2019-04-01T07:30:11.943Z,933.78
2019-04-01T07:31:11.962Z,933.80
2019-04-01T07:32:14.458Z,933.80
2019-04-01T07:33:11.960Z,933.78
2019-04-01T07:34:12.089Z,933.78
2019-04-01T07:35:11.892Z,933.75
2019-04-01T07:36:11.876Z,933.71
2019-04-01T07:37:11.914Z,933.73
2019-04-01T07:38:11.853Z,933.66
2019-04-01T07:39:11.849Z,933.71
2019-04-01T07:40:13.958Z,933.73
2019-04-01T07:41:11.984Z,933.74
2019-04-01T07:42:11.865Z,933.74
2019-04-01T07:43:14.747Z,933.79
2019-04-01T07:44:11.820Z,933.77
2019-04-01T07:45:11.780Z,933.77
2019-04-01T07:46:11.792Z,933.73
2019-04-01T07:47:11.796Z,933.72
2019-04-01T07:48:12.772Z,933.71
2019-04-01T07:49:11.750Z,933.71
2019-04-01T07:50:12.412Z,933.71
2019-04-01T07:51:11.776Z,933.72
2019-04-01T07:52:11.738Z,933.78
2019-04-01T07:53:11.731Z,933.77
2019-04-01T07:54:11.708Z,933.80
2019-04-01T07:55:11.707Z,933.79
2019-04-01T07:56:11.721Z,933.81
2019-04-01T07:57:11.694Z,933.79
2019-04-01T07:58:11.701Z,933.80
2019-04-01T07:59:11.672Z,933.84
2019-04-01T08:00:11.713Z,933.80
2019-04-01T08:01:11.657Z,933.78
2019-04-01T08:02:11.660Z,933.75
2019-04-01T08:03:11.626Z,933.80
2019-04-01T08:04:11.648Z,933.83
2019-04-01T08:05:11.618Z,933.80
2019-04-01T08:06:11.634Z,933.86
2019-04-01T08:07:13.383Z,933.80
2019-04-01T08:08:11.593Z,933.84
2019-04-01T08:09:11.601Z,933.84
2019-04-01T08:10:11.576Z,933.81
2019-04-01T08:11:11.574Z,933.81
2019-04-01T08:12:11.565Z,933.80
2019-04-01T08:13:11.562Z,933.81
2019-04-01T08:14:11.556Z,933.82
2019-04-01T08:15:11.733Z,933.86
2019-04-01T08:16:11.752Z,933.85
2019-04-01T08:17:11.506Z,933.83
2019-04-01T08:18:11.530Z,933.82
2019-04-01T08:19:11.513Z,933.84
2019-04-01T08:20:11.487Z,933.88
2019-04-01T08:21:11.495Z,933.88
2019-04-01T08:22:11.477Z,933.88
2019-04-01T08:23:11.482Z,933.89
2019-04-01T08:24:11.447Z,933.86
2019-04-01T08:25:11.439Z,933.89
2019-04-01T08:26:11.439Z,933.95
2019-04-01T08:27:11.434Z,933.94
2019-04-01T08:28:11.423Z,933.97
2019-04-01T08:29:11.408Z,933.98
2019-04-01T08:30:11.443Z,934.01
2019-04-01T08:31:13.277Z,933.99
2019-04-01T08:32:13.897Z,934.00
2019-04-01T08:33:11.383Z,934.01
2019-04-01T08:34:11.384Z,934.06
2019-04-01T08:35:11.373Z,934.06
2019-04-01T08:36:11.348Z,934.08
2019-04-01T08:37:11.351Z,934.11
2019-04-01T08:38:11.338Z,934.12
2019-04-01T08:40:57.687Z,934.12
2019-04-01T08:41:57.681Z,934.05
2019-04-01T08:42:57.662Z,934.03
2019-04-01T08:43:57.644Z,934.06
2019-04-01T08:44:57.644Z,934.05
2019-04-01T08:45:57.619Z,934.07
2019-04-01T08:46:57.762Z,934.06
2019-04-01T08:47:57.601Z,934.11
2019-04-01T08:48:57.614Z,934.06
2019-04-01T08:49:57.593Z,934.05
2019-04-01T08:50:57.571Z,934.04
2019-04-01T08:51:57.582Z,934.03
2019-04-01T08:52:57.573Z,934.07
2019-04-01T08:53:57.572Z,934.03
2019-04-01T08:54:57.543Z,934.04
2019-04-01T08:56:01.087Z,934.07
2019-04-01T08:56:57.538Z,934.08
2019-04-01T08:57:57.531Z,934.10
2019-04-01T08:58:57.519Z,934.10
2019-04-01T08:59:57.496Z,934.12
2019-04-01T09:00:57.503Z,934.11
2019-04-01T09:01:57.516Z,934.13
2019-04-01T09:02:57.475Z,934.17
2019-04-01T09:03:57.456Z,934.18
2019-04-01T09:04:57.459Z,934.19
2019-04-01T09:05:57.584Z,934.20
2019-04-01T09:06:57.453Z,934.19
2019-04-01T09:07:57.440Z,934.15
2019-04-01T09:08:57.411Z,934.18
2019-04-01T09:09:57.426Z,934.16
2019-04-01T09:10:57.387Z,934.15
2019-04-01T09:11:57.391Z,934.19
2019-04-01T09:12:57.403Z,934.20
2019-04-01T09:13:57.393Z,934.20
2019-04-01T09:14:57.362Z,934.25
2019-04-01T09:15:57.356Z,934.24
2019-04-01T09:16:57.342Z,934.24
2019-04-01T09:17:57.347Z,934.32
2019-04-01T09:18:57.328Z,934.35
2019-04-01T09:19:57.312Z,934.31
2019-04-01T09:20:57.312Z,934.32
2019-04-01T09:21:57.323Z,934.36
2019-04-01T09:22:59.289Z,934.32
2019-04-01T09:23:57.284Z,934.31
2019-04-01T09:24:57.280Z,934.31
2019-04-01T09:25:57.259Z,934.32
2019-04-01T09:26:57.285Z,934.32
2019-04-01T09:27:57.266Z,934.30
2019-04-01T09:28:57.265Z,934.32
2019-04-01T09:29:57.235Z,934.36
2019-04-01T09:30:57.242Z,934.31
2019-04-01T09:31:57.223Z,934.36
2019-04-01T09:32:57.237Z,934.33
2019-04-01T09:33:57.200Z,934.38
2019-04-01T09:34:57.209Z,934.40
2019-04-01T09:35:57.197Z,934.41
2019-04-01T09:36:57.187Z,934.40
2019-04-01T09:37:57.174Z,934.41
2019-04-01T09:38:57.166Z,934.38
2019-04-01T09:39:57.140Z,934.33
2019-04-01T09:40:57.130Z,934.34
2019-04-01T09:41:57.145Z,934.35
2019-04-01T09:42:57.141Z,934.37
2019-04-01T09:43:57.119Z,934.40
2019-04-01T09:44:57.114Z,934.41
2019-04-01T09:45:57.094Z,934.43
2019-04-01T09:46:57.080Z,934.41
2019-04-01T09:47:57.082Z,934.48
2019-04-01T09:48:57.079Z,934.50
2019-04-01T09:49:57.053Z,934.50
2019-04-01T09:50:57.042Z,934.52
2019-04-01T09:51:57.034Z,934.53
2019-04-01T09:52:57.025Z,934.55
2019-04-01T09:53:57.036Z,934.59
2019-04-01T09:54:57.059Z,934.61
2019-04-01T09:55:57.062Z,934.63
2019-04-01T09:56:56.997Z,934.68
2019-04-01T09:57:56.995Z,934.73
2019-04-01T09:58:56.991Z,934.69
2019-04-01T09:59:56.986Z,934.74
2019-04-01T10:00:57.007Z,934.69
2019-04-01T10:01:57.005Z,934.68
2019-04-01T10:02:56.954Z,934.72
2019-04-01T10:03:56.943Z,934.71
2019-04-01T10:04:56.923Z,934.70
2019-04-01T10:05:56.924Z,934.72
2019-04-01T10:06:56.923Z,934.71
2019-04-01T10:07:56.892Z,934.71
2019-04-01T10:08:56.937Z,934.69
2019-04-01T10:09:56.892Z,934.73
2019-04-01T10:10:56.865Z,934.71
2019-04-01T10:11:56.862Z,934.73
2019-04-01T10:12:56.863Z,934.72
2019-04-01T10:13:56.863Z,934.71
2019-04-01T10:14:56.899Z,934.73
2019-04-01T10:15:56.834Z,934.69
2019-04-01T10:16:56.843Z,934.75
2019-04-01T10:17:56.824Z,934.76
2019-04-01T10:18:56.846Z,934.80
2019-04-01T10:19:56.792Z,934.82
2019-04-01T10:20:56.805Z,934.82
2019-04-01T10:21:56.776Z,934.83
2019-04-01T10:22:56.783Z,934.81
2019-04-01T10:23:56.779Z,934.81
2019-04-01T10:24:56.739Z,934.85
2019-04-01T10:25:56.757Z,934.82
2019-04-01T10:26:56.752Z,934.86
2019-04-01T10:27:56.741Z,934.87
2019-04-01T10:28:56.714Z,934.91
2019-04-01T10:29:56.703Z,934.88
2019-04-01T10:30:56.693Z,934.91
2019-04-01T10:31:56.740Z,934.87
2019-04-01T10:32:56.703Z,934.88
2019-04-01T10:33:56.694Z,934.90
2019-04-01T10:34:56.656Z,934.93
2019-04-01T10:35:56.658Z,934.89
2019-04-01T10:36:56.732Z,934.89
2019-04-01T10:37:56.664Z,934.92
2019-04-01T10:38:56.623Z,934.92
2019-04-01T10:39:59.970Z,934.94
2019-04-01T10:40:56.615Z,934.94
2019-04-01T10:41:56.597Z,934.99
2019-04-01T10:42:56.611Z,935.01
2019-04-01T10:43:56.609Z,935.01
2019-04-01T10:44:56.573Z,935.00
2019-04-01T10:45:56.564Z,935.02
2019-04-01T10:46:56.590Z,935.04
2019-04-01T10:47:56.640Z,935.02
2019-04-01T10:48:56.712Z,935.07
2019-04-01T10:49:56.619Z,935.05
2019-04-01T10:50:56.572Z,935.05
2019-04-01T10:51:56.608Z,935.03
2019-04-01T10:52:56.609Z,935.04
2019-04-01T10:53:56.519Z,935.08
2019-04-01T10:54:56.524Z,935.09
2019-04-01T10:55:56.513Z,935.08
2019-04-01T10:56:56.533Z,935.08
2019-04-01T10:57:56.533Z,935.10
2019-04-01T10:58:56.487Z,935.08
2019-04-01T10:59:56.549Z,935.09
2019-04-01T11:00:56.510Z,935.06
2019-04-01T11:01:56.509Z,935.13
2019-04-01T11:02:56.540Z,935.13
2019-04-01T11:03:56.455Z,935.16
2019-04-01T11:04:56.496Z,935.15
2019-04-01T11:05:56.541Z,935.21
2019-04-01T11:06:56.483Z,935.17
2019-04-01T11:07:56.482Z,935.20
2019-04-01T11:08:56.570Z,935.18
2019-04-01T11:09:56.392Z,935.22
2019-04-01T11:10:56.378Z,935.16
2019-04-01T11:11:56.369Z,935.14
2019-04-01T11:12:56.359Z,935.15
2019-04-01T11:13:56.352Z,935.15
2019-04-01T11:14:56.343Z,935.15
2019-04-01T11:15:56.329Z,935.15
2019-04-01T11:16:56.325Z,935.16
2019-04-01T11:17:56.301Z,935.15
2019-04-01T11:18:58.109Z,935.19
2019-04-01T11:19:56.315Z,935.16
2019-04-01T11:20:56.981Z,935.15
2019-04-01T11:21:56.289Z,935.22
2019-04-01T11:22:56.318Z,935.21
2019-04-01T11:23:56.262Z,935.26
2019-04-01T11:24:56.303Z,935.25
2019-04-01T11:25:56.259Z,935.23
2019-04-01T11:26:56.251Z,935.26
2019-04-01T11:27:56.246Z,935.24
2019-04-01T11:28:56.229Z,935.22
2019-04-01T11:29:56.217Z,935.29
2019-04-01T11:30:56.235Z,935.26
2019-04-01T11:31:56.252Z,935.28
2019-04-01T11:32:56.270Z,935.29
2019-04-01T11:33:56.207Z,935.25
2019-04-01T11:34:56.282Z,935.27
2019-04-01T11:35:56.248Z,935.29
2019-04-01T11:36:56.215Z,935.27
2019-04-01T11:37:56.159Z,935.34
2019-04-01T11:38:56.153Z,935.33
2019-04-01T11:39:56.148Z,935.34
2019-04-01T11:40:56.133Z,935.37
2019-04-01T11:41:56.128Z,935.39
2019-04-01T11:42:56.431Z,935.39
2019-04-01T11:43:56.146Z,935.37
2019-04-01T11:44:56.090Z,935.38
2019-04-01T11:45:56.101Z,935.36
2019-04-01T11:46:56.104Z,935.38
2019-04-01T11:47:56.119Z,935.43
2019-04-01T11:48:56.061Z,935.47
2019-04-01T11:49:56.979Z,935.40
2019-04-01T11:50:56.101Z,935.40
2019-04-01T11:51:56.048Z,935.44
2019-04-01T11:52:56.082Z,935.45
2019-04-01T11:53:56.037Z,935.45
2019-04-01T11:54:56.459Z,935.39
2019-04-01T11:55:56.022Z,935.40
2019-04-01T11:56:56.018Z,935.40
2019-04-01T11:57:56.006Z,935.39
2019-04-01T11:58:56.830Z,935.40
2019-04-01T11:59:55.981Z,935.39
2019-04-01T12:00:55.980Z,935.40
2019-04-01T12:01:55.965Z,935.41
2019-04-01T12:02:55.969Z,935.39
2019-04-01T12:03:55.962Z,935.38
2019-04-01T12:04:55.933Z,935.40
2019-04-01T12:05:55.943Z,935.39
2019-04-01T12:06:55.913Z,935.41
2019-04-01T12:07:55.919Z,935.44
2019-04-01T12:08:55.921Z,935.44
2019-04-01T12:09:56.090Z,935.46
2019-04-01T12:10:55.907Z,935.47
2019-04-01T12:11:55.901Z,935.43
2019-04-01T12:12:55.869Z,935.46
2019-04-01T12:13:56.307Z,935.42
2019-04-01T12:14:55.865Z,935.39
2019-04-01T12:15:55.873Z,935.43
2019-04-01T12:16:55.848Z,935.46
2019-04-01T12:17:55.884Z,935.44
2019-04-01T12:18:55.828Z,935.43
2019-04-01T12:19:55.838Z,935.49
2019-04-01T12:20:55.827Z,935.44
2019-04-01T12:21:55.840Z,935.40
2019-04-01T12:22:55.825Z,935.44
2019-04-01T12:23:55.920Z,935.44
2019-04-01T12:24:55.788Z,935.40
2019-04-01T12:25:55.798Z,935.42
2019-04-01T12:26:55.778Z,935.43
2019-04-01T12:27:55.791Z,935.44
2019-04-01T12:28:55.781Z,935.46
2019-04-01T12:29:55.789Z,935.45